Aérodrome :
LOGIN :

S'inscrire | Disclaimer

   EN    FR    IT 

 










Légende :    VFR   VFR Marginal   IFR   IFR Intensif   IFR Très Intensif
Visi : 
Plafond : 
>= 8 km
>= 3000ft
5 à 8 km
1000 à 3000 ft
1500m à 5 km
500 à 1000 ft
800 à 1500m
200 à 500 ft
< 800m
< 200 ft
Symboles :   Orages  Brouillard  Fortes neiges  Fortes précipitations  Vent > 20 kt
SIGMETs :   Divers  Orages  Givrage  Turbulence  Onde Orograph.  Cendres Volcan.







- Altitude de l'aérodrome : 870 ft
- Code IATA : ETZ
- Voir les cartes d'approche


LFJL - Metz Nancy Lorraine

DERNIER METAR :
  • 170930Z AUTO VRB02KT CAVOK 16/10 Q1019 NOSIG

METARs EXPIRÉS :
  • 170900Z AUTO 05004KT 020V080 CAVOK 15/10 Q1019 NOSIG
  • 170830Z AUTO 06005KT CAVOK 14/09 Q1019 NOSIG
  • 170800Z AUTO 05002KT CAVOK 12/09 Q1019 NOSIG
  • 170730Z AUTO 06003KT 9000 NSC 11/09 Q1019 NOSIG
  • 170700Z AUTO 00000KT 9000 NSC 09/08 Q1019 NOSIG

TAF TAF LFJL
Valide du 17 à 06h jusqu'au 18 à 06h UTC


170500Z 1706/1806 VRB02KT CAVOK
BECMG 1721/1724 01006KT
Pas de NOTAMs connus pour ce terrain.



MET'MAP, la Météo Aéronautique d'un coup d'oeil ! - Copyright ORBIFLY Décembre 2007 - Disclaimer

ORBIFLY MET'MAP TEAM :

Programmation & Développement : Alexandra Zaïnal
Conception & Développement : Baudouin d'Aumeries
Co-Programmation & Développement : Marc-Olivier Méhu
Soutien technique & logistique : Manuel Goepfert

Contact : metmap@orbifly.com




SOURCES & CREDITS :

   NOAA